^^
Meteo Knjazevac Station Historical Data
Daily Summary for April 12, 2021 Units:  English    Metric   Both
Daily Weekly Monthly Yearly Custom
  High: Low: Average:
Temperature: 40.5 °F 34.3 °F 35.6 °F
Dew Point: 40.2 °F 31.9 °F 34.5 °F
Humidity: 99% 90% 96%
Wind Speed: 14mph 0mph 6.5mph
Wind Gust: 21mph - -
Wind- - SW
Pressure: 30.04 in 29.68 in -
Precipitation: 0.10 in    
Historical Graphs
 
 
Tabular Data for April 12, 2021
Time Temperature Dew Point Pressure Wind Wind Speed Wind Gust Humidity Rainfall Rate (Hourly) solar Conditions
00:00 40.3 °F 40 °F 29.68 in SE 3 mph 5 mph 99% 0.02 in 0 W/m2
00:10 40.3 °F 40 °F 29.68 in ESE 3 mph 4 mph 99% 0.02 in 0 W/m2
00:20 40.5 °F 40.2 °F 29.68 in ESE 2 mph 3 mph 99% 0.01 in 0 W/m2
00:30 40.5 °F 40.2 °F 29.68 in SSE 3 mph 4 mph 99% 0.01 in 0 W/m2
00:40 40.3 °F 40 °F 29.68 in SSW 5 mph 8 mph 99% 0.01 in 0 W/m2
00:50 40 °F 39.8 °F 29.69 in SW 9 mph 13 mph 99% 0.00 in 0 W/m2
01:00 39.4 °F 39.1 °F 29.68 in SW 7 mph 14 mph 99% 0.00 in 0 W/m2
01:10 38.8 °F 38.6 °F 29.68 in SW 6 mph 12 mph 99% 0.01 in 0 W/m2
01:20 38.5 °F 38.2 °F 29.69 in SSW 6 mph 12 mph 99% 0.01 in 0 W/m2
01:30 38.3 °F 38 °F 29.69 in SSW 6 mph 8 mph 99% 0.00 in 0 W/m2
01:40 38.1 °F 37.8 °F 29.70 in SSW 5 mph 10 mph 99% 0.00 in 0 W/m2
01:50 37.8 °F 37.5 °F 29.70 in SSW 7 mph 11 mph 99% 0.00 in 0 W/m2
02:00 37.6 °F 37.3 °F 29.71 in SSW 5 mph 12 mph 99% 0.00 in 0 W/m2
02:10 37.4 °F 37.1 °F 29.71 in SW 6 mph 12 mph 99% 0.01 in 0 W/m2
02:20 37.2 °F 37 °F 29.72 in SSW 7 mph 13 mph 99% 0.00 in 0 W/m2
02:30 37 °F 36.8 °F 29.73 in SSW 8 mph 14 mph 99% 0.00 in 0 W/m2
02:40 36.7 °F 36.4 °F 29.73 in SSW 9 mph 14 mph 99% 0.00 in 0 W/m2
02:50 36.3 °F 36.1 °F 29.73 in SSW 7 mph 14 mph 99% 0.00 in 0 W/m2
03:00 36 °F 35.7 °F 29.73 in SW 8 mph 14 mph 99% 0.00 in 0 W/m2
03:10 35.7 °F 35.5 °F 29.72 in SW 9 mph 14 mph 99% 0.00 in 0 W/m2
03:20 35.4 °F 35.2 °F 29.73 in SSW 8 mph 13 mph 99% 0.00 in 0 W/m2
03:30 35.6 °F 35.3 °F 29.72 in SW 9 mph 14 mph 99% 0.00 in 0 W/m2
03:40 35.6 °F 35.3 °F 29.72 in SSW 8 mph 14 mph 99% 0.00 in 0 W/m2
03:50 35.4 °F 35.2 °F 29.73 in SSW 10 mph 14 mph 99% 0.00 in 0 W/m2
04:00 35.4 °F 35.2 °F 29.73 in SSW 10 mph 14 mph 99% 0.00 in 0 W/m2
04:10 35.2 °F 35 °F 29.74 in SW 9 mph 21 mph 99% 0.00 in 0 W/m2
04:20 35.2 °F 34.9 °F 29.74 in SW 14 mph 20 mph 99% 0.00 in 0 W/m2
04:30 35.1 °F 34.8 °F 29.74 in SW 10 mph 21 mph 99% 0.00 in 0 W/m2
04:40 35.1 °F 34.8 °F 29.75 in SW 14 mph 20 mph 99% 0.01 in 0 W/m2
04:50 34.9 °F 34.6 °F 29.75 in SW 13 mph 21 mph 99% 0.00 in 0 W/m2
05:00 34.9 °F 34.4 °F 29.76 in SW 10 mph 16 mph 98% 0.00 in 0 W/m2
05:10 34.7 °F 34.4 °F 29.77 in SW 9 mph 16 mph 99% 0.00 in 0 W/m2
05:20 34.7 °F 34.4 °F 29.78 in SW 12 mph 17 mph 99% 0.00 in 0 W/m2
05:30 34.7 °F 34.2 °F 29.78 in SW 14 mph 18 mph 98% 0.00 in 0 W/m2
05:40 34.7 °F 34.2 °F 29.78 in SW 9 mph 21 mph 98% 0.00 in 0 W/m2
05:50 34.7 °F 34.2 °F 29.79 in SW 9 mph 17 mph 98% 0.00 in 0 W/m2
06:00 34.7 °F 34.2 °F 29.80 in SW 9 mph 17 mph 98% 0.00 in 0 W/m2
06:10 34.7 °F 34.2 °F 29.80 in SW 9 mph 19 mph 98% 0.00 in 0 W/m2
06:20 34.7 °F 34.2 °F 29.80 in SW 8 mph 20 mph 98% 0.00 in 0 W/m2
06:30 34.7 °F 33.7 °F 29.80 in SW 12 mph 18 mph 96% 0.00 in 0 W/m2
06:40 34.7 °F 33.7 °F 29.81 in SW 12 mph 20 mph 96% 0.00 in 0 W/m2
06:50 34.7 °F 33.7 °F 29.81 in SW 12 mph 20 mph 96% 0.00 in 0 W/m2
07:00 34.7 °F 33.7 °F 29.82 in SW 12 mph 21 mph 96% 0.00 in 4 W/m2
07:10 34.5 °F 33.5 °F 29.83 in SW 9 mph 18 mph 96% 0.00 in 5 W/m2
07:20 34.5 °F 33.5 °F 29.83 in SW 10 mph 17 mph 96% 0.00 in 14 W/m2
07:30 34.5 °F 33.5 °F 29.84 in SW 6 mph 17 mph 96% 0.00 in 18 W/m2
07:40 34.5 °F 33.5 °F 29.85 in SSW 9 mph 15 mph 96% 0.00 in 23 W/m2
07:50 34.7 °F 33.7 °F 29.86 in SW 7 mph 20 mph 96% 0.00 in 30 W/m2
08:00 34.7 °F 33.7 °F 29.86 in SW 10 mph 16 mph 96% 0.00 in 37 W/m2
08:10 34.7 °F 33.7 °F 29.87 in SW 10 mph 20 mph 96% 0.00 in 68 W/m2
08:20 34.7 °F 33.7 °F 29.87 in SW 8 mph 17 mph 96% 0.00 in 84 W/m2
08:30 34.8 °F 33.8 °F 29.87 in SW 8 mph 15 mph 96% 0.00 in 89 W/m2
08:40 34.9 °F 33.9 °F 29.88 in SW 8 mph 15 mph 96% 0.00 in 103 W/m2
08:50 35.2 °F 34.2 °F 29.89 in SW 9 mph 17 mph 96% 0.00 in 122 W/m2
09:00 35.2 °F 34 °F 29.89 in SW 7 mph 15 mph 95% 0.00 in 89 W/m2
09:10 35.2 °F 34 °F 29.89 in SW 8 mph 15 mph 95% 0.00 in 100 W/m2
09:20 35.4 °F 34.1 °F 29.90 in SW 6 mph 17 mph 95% 0.00 in 120 W/m2
09:30 35.4 °F 34.4 °F 29.90 in SW 6 mph 14 mph 96% 0.00 in 162 W/m2
09:40 35.7 °F 34.4 °F 29.91 in SW 7 mph 17 mph 95% 0.00 in 161 W/m2
09:50 35.8 °F 34.5 °F 29.91 in SSW 6 mph 13 mph 95% 0.00 in 100 W/m2
10:00 35.7 °F 34.4 °F 29.91 in SW 8 mph 14 mph 95% 0.00 in 90 W/m2
10:10 35.7 °F 34.4 °F 29.91 in SW 7 mph 12 mph 95% 0.00 in 102 W/m2
10:20 35.6 °F 34.3 °F 29.91 in SW 8 mph 16 mph 95% 0.00 in 61 W/m2
10:30 35.4 °F 34.1 °F 29.92 in SW 7 mph 13 mph 95% 0.00 in 60 W/m2
10:40 35.4 °F 34.1 °F 29.92 in SW 7 mph 13 mph 95% 0.00 in 57 W/m2
10:50 35.3 °F 34 °F 29.92 in SW 9 mph 18 mph 95% 0.00 in 52 W/m2
11:00 35.3 °F 34 °F 29.92 in SW 9 mph 15 mph 95% 0.00 in 89 W/m2
11:10 35.4 °F 34.1 °F 29.93 in SW 9 mph 14 mph 95% 0.00 in 68 W/m2
11:20 35.4 °F 34.1 °F 29.93 in SW 8 mph 14 mph 95% 0.00 in 76 W/m2
11:30 35.4 °F 34.1 °F 29.93 in SW 8 mph 13 mph 95% 0.00 in 71 W/m2
11:40 35.4 °F 34.1 °F 29.94 in SW 8 mph 13 mph 95% 0.00 in 33 W/m2
11:50 35.4 °F 34.1 °F 29.94 in SW 6 mph 13 mph 95% 0.00 in 39 W/m2
12:00 35.4 °F 34.1 °F 29.94 in SW 5 mph 11 mph 95% 0.00 in 48 W/m2
12:10 35.4 °F 34.1 °F 29.95 in SW 5 mph 9 mph 95% 0.00 in 45 W/m2
12:20 35.6 °F 34 °F 29.95 in SW 5 mph 12 mph 94% 0.00 in 40 W/m2
12:30 35.6 °F 34 °F 29.95 in WSW 5 mph 12 mph 94% 0.00 in 51 W/m2
12:40 35.8 °F 34.2 °F 29.95 in WSW 8 mph 11 mph 94% 0.00 in 49 W/m2
12:50 35.8 °F 34.2 °F 29.95 in WSW 3 mph 10 mph 94% 0.00 in 40 W/m2
13:00 35.8 °F 34 °F 29.96 in WSW 2 mph 8 mph 93% 0.00 in 40 W/m2
13:10 35.8 °F 34 °F 29.96 in West 3 mph 8 mph 93% 0.00 in 35 W/m2
13:20 35.8 °F 33.4 °F 29.96 in West 6 mph 10 mph 91% 0.00 in 34 W/m2
13:30 35.6 °F 33.2 °F 29.96 in West 6 mph 10 mph 91% 0.00 in 25 W/m2
13:40 35.6 °F 33.2 °F 29.96 in West 5 mph 9 mph 91% 0.00 in 16 W/m2
13:50 35.4 °F 33.1 °F 29.97 in West 3 mph 9 mph 91% 0.00 in 18 W/m2
14:00 35.4 °F 33.1 °F 29.97 in WSW 3 mph 9 mph 91% 0.00 in 15 W/m2
14:10 35.3 °F 33 °F 29.98 in WSW 3 mph 7 mph 91% 0.00 in 12 W/m2
14:20 35.2 °F 32.9 °F 29.98 in WSW 3 mph 5 mph 91% 0.00 in 8 W/m2
14:30 35.2 °F 33.4 °F 29.98 in WSW 2 mph 6 mph 93% 0.00 in 5 W/m2
14:40 35.2 °F 33.4 °F 29.99 in WSW 3 mph 6 mph 93% 0.00 in 5 W/m2
14:50 35.1 °F 33.2 °F 29.99 in WSW 2 mph 5 mph 93% 0.00 in 5 W/m2
15:00 35.1 °F 33.2 °F 29.99 in WSW 3 mph 5 mph 93% 0.00 in 4 W/m2
15:10 34.9 °F 33.1 °F 29.99 in WSW 3 mph 7 mph 93% 0.00 in 3 W/m2
15:20 34.9 °F 33.1 °F 30.00 in SW 1 mph 5 mph 93% 0.00 in 3 W/m2
15:30 34.9 °F 33.3 °F 30.00 in SW 2 mph 4 mph 94% 0.00 in 3 W/m2
15:40 34.8 °F 33 °F 30.00 in SW 2 mph 5 mph 93% 0.00 in 2 W/m2
15:50 34.7 °F 33.2 °F 30.00 in Calm   3 mph 94% 0.00 in 1 W/m2
16:00 34.7 °F 33.2 °F 30.00 in West 1 mph 5 mph 94% 0.00 in 0 W/m2
16:10 34.7 °F 32.9 °F 30.00 in West 2 mph 6 mph 93% 0.00 in 0 W/m2
16:20 34.6 °F 33 °F 30.01 in WSW 2 mph 5 mph 94% 0.00 in 0 W/m2
16:30 34.5 °F 33 °F 30.02 in West 2 mph 5 mph 94% 0.00 in 0 W/m2
16:40 34.5 °F 33 °F 30.02 in WSW 5 mph 6 mph 94% 0.00 in 0 W/m2
16:50 34.5 °F 32.7 °F 30.02 in West 6 mph 11 mph 93% 0.00 in 0 W/m2
17:00 34.3 °F 32 °F 30.02 in WSW 5 mph 11 mph 91% 0.00 in 0 W/m2
17:10 34.5 °F 31.9 °F 30.03 in WSW 6 mph 13 mph 90% 0.00 in 0 W/m2
17:20 34.5 °F 32.2 °F 30.03 in WSW 3 mph 10 mph 91% 0.00 in 0 W/m2
17:30 34.3 °F 32 °F 30.03 in WSW 3 mph 9 mph 91% 0.00 in 0 W/m2
17:40 34.3 °F 32 °F 30.03 in WSW 2 mph 6 mph 91% 0.00 in 0 W/m2
17:50 34.3 °F 32 °F 30.04 in SSW 2 mph 5 mph 91% 0.00 in 0 W/m2
18:00 34.3 °F 32.5 °F 30.03 in SW 2 mph 5 mph 93% 0.00 in 0 W/m2
18:10 34.3 °F 32 °F 30.04 in SW 2 mph 5 mph 91% 0.00 in 0 W/m2
Knjazevac, Serbia
Compliments of Weather Underground - 2 mb